sensor_id;sensor_type;location;lat;lon;timestamp;pressure;altitude;pressure_sealevel;temperature;humidity
10135;BME280;5107;48.850;8.924;2023-02-19T00:01:06;97334.72;;;8.01;100.00
10135;BME280;5107;48.850;8.924;2023-02-19T00:03:34;97341.75;;;8.00;100.00
10135;BME280;5107;48.850;8.924;2023-02-19T00:06:01;97332.94;;;8.02;100.00
10135;BME280;5107;48.850;8.924;2023-02-19T00:08:29;97321.47;;;8.03;100.00
10135;BME280;5107;48.850;8.924;2023-02-19T00:11:00;97332.94;;;8.02;100.00
10135;BME280;5107;48.850;8.924;2023-02-19T00:13:28;97327.69;;;8.02;100.00
10135;BME280;5107;48.850;8.924;2023-02-19T00:15:57;97320.78;;;8.00;100.00
10135;BME280;5107;48.850;8.924;2023-02-19T00:18:25;97317.19;;;8.02;100.00
10135;BME280;5107;48.850;8.924;2023-02-19T00:20:55;97313.88;;;7.99;100.00
10135;BME280;5107;48.850;8.924;2023-02-19T00:23:22;97314.72;;;8.00;100.00
10135;BME280;5107;48.850;8.924;2023-02-19T00:25:49;97316.38;;;8.01;100.00
10135;BME280;5107;48.850;8.924;2023-02-19T00:28:16;97312.94;;;8.00;100.00
10135;BME280;5107;48.850;8.924;2023-02-19T00:30:43;97323.28;;;8.02;100.00
10135;BME280;5107;48.850;8.924;2023-02-19T00:33:11;97319.00;;;8.01;100.00
10135;BME280;5107;48.850;8.924;2023-02-19T00:35:38;97319.81;;;8.02;100.00
10135;BME280;5107;48.850;8.924;2023-02-19T00:38:05;97321.31;;;8.04;100.00
10135;BME280;5107;48.850;8.924;2023-02-19T00:40:33;97324.09;;;8.03;100.00
10135;BME280;5107;48.850;8.924;2023-02-19T00:43:00;97323.28;;;8.02;100.00
10135;BME280;5107;48.850;8.924;2023-02-19T00:45:27;97321.63;;;8.01;100.00
10135;BME280;5107;48.850;8.924;2023-02-19T00:47:54;97318.88;;;8.03;100.00
10135;BME280;5107;48.850;8.924;2023-02-19T00:50:22;97318.88;;;8.03;100.00
10135;BME280;5107;48.850;8.924;2023-02-19T00:52:49;97303.13;;;8.03;100.00
10135;BME280;5107;48.850;8.924;2023-02-19T00:55:17;97298.84;;;8.02;100.00
10135;BME280;5107;48.850;8.924;2023-02-19T00:57:44;97298.16;;;7.99;100.00
10135;BME280;5107;48.850;8.924;2023-02-19T01:00:12;97309.59;;;7.98;100.00
10135;BME280;5107;48.850;8.924;2023-02-19T01:02:39;97299.25;;;7.97;100.00
10135;BME280;5107;48.850;8.924;2023-02-19T01:05:07;97292.53;;;7.94;100.00
10135;BME280;5107;48.850;8.924;2023-02-19T01:07:36;97296.78;;;7.95;100.00
10135;BME280;5107;48.850;8.924;2023-02-19T01:10:05;97289.91;;;7.94;100.00
10135;BME280;5107;48.850;8.924;2023-02-19T01:12:32;97296.94;;;7.94;100.00
10135;BME280;5107;48.850;8.924;2023-02-19T01:14:59;97299.56;;;7.94;100.00
10135;BME280;5107;48.850;8.924;2023-02-19T01:17:26;97295.28;;;7.93;100.00
10135;BME280;5107;48.850;8.924;2023-02-19T01:19:53;97283.97;;;7.92;100.00
10135;BME280;5107;48.850;8.924;2023-02-19T01:22:20;97289.06;;;7.94;100.00
10135;BME280;5107;48.850;8.924;2023-02-19T01:24:49;97287.28;;;7.94;100.00
10135;BME280;5107;48.850;8.924;2023-02-19T01:27:16;97284.66;;;7.94;100.00
10135;BME280;5107;48.850;8.924;2023-02-19T01:29:43;97282.19;;;7.93;100.00
10135;BME280;5107;48.850;8.924;2023-02-19T01:32:10;97282.03;;;7.94;100.00
10135;BME280;5107;48.850;8.924;2023-02-19T01:34:37;97289.91;;;7.94;100.00
10135;BME280;5107;48.850;8.924;2023-02-19T01:37:04;97290.72;;;7.95;100.00
10135;BME280;5107;48.850;8.924;2023-02-19T01:39:35;97284.66;;;7.94;100.00
10135;BME280;5107;48.850;8.924;2023-02-19T01:42:09;97287.13;;;7.96;100.00
10135;BME280;5107;48.850;8.924;2023-02-19T01:45:22;97289.47;;;7.99;100.00
10135;BME280;5107;48.850;8.924;2023-02-19T01:48:00;97288.66;;;7.98;100.00
10135;BME280;5107;48.850;8.924;2023-02-19T01:50:31;97285.88;;;8.00;100.00
10135;BME280;5107;48.850;8.924;2023-02-19T01:53:02;97289.47;;;7.99;100.00
10135;BME280;5107;48.850;8.924;2023-02-19T01:55:31;97289.34;;;8.00;100.00
10135;BME280;5107;48.850;8.924;2023-02-19T01:58:01;97279.81;;;7.99;100.00
10135;BME280;5107;48.850;8.924;2023-02-19T02:00:29;97293.75;;;8.00;100.00
10135;BME280;5107;48.850;8.924;2023-02-19T02:02:59;97294.59;;;8.00;100.00
10135;BME280;5107;48.850;8.924;2023-02-19T02:05:42;97302.44;;;8.00;100.00
10135;BME280;5107;48.850;8.924;2023-02-19T02:08:12;97297.19;;;8.00;100.00
10135;BME280;5107;48.850;8.924;2023-02-19T02:10:57;97285.75;;;8.02;100.00
10135;BME280;5107;48.850;8.924;2023-02-19T02:13:27;97285.19;;;7.98;100.00
10135;BME280;5107;48.850;8.924;2023-02-19T02:16:09;97274.84;;;7.96;100.00
10135;BME280;5107;48.850;8.924;2023-02-19T02:18:53;97274.19;;;7.94;100.00
10135;BME280;5107;48.850;8.924;2023-02-19T02:21:54;97265.91;;;7.89;100.00
10135;BME280;5107;48.850;8.924;2023-02-19T02:27:52;97256.69;;;7.85;100.00
10135;BME280;5107;48.850;8.924;2023-02-19T02:30:40;97248.81;;;7.85;100.00
10135;BME280;5107;48.850;8.924;2023-02-19T02:33:25;97246.19;;;7.85;100.00
10135;BME280;5107;48.850;8.924;2023-02-19T02:35:58;97239.16;;;7.86;100.00
10135;BME280;5107;48.850;8.924;2023-02-19T02:38:30;97248.00;;;7.85;100.00
10135;BME280;5107;48.850;8.924;2023-02-19T02:40:58;97250.59;;;7.85;100.00
10135;BME280;5107;48.850;8.924;2023-02-19T02:43:26;97238.47;;;7.84;100.00
10135;BME280;5107;48.850;8.924;2023-02-19T02:45:55;97247.16;;;7.84;100.00
10135;BME280;5107;48.850;8.924;2023-02-19T02:48:45;97247.84;;;7.86;100.00
10135;BME280;5107;48.850;8.924;2023-02-19T02:51:22;97248.66;;;7.87;100.00
10135;BME280;5107;48.850;8.924;2023-02-19T02:54:04;97237.38;;;7.86;100.00
10135;BME280;5107;48.850;8.924;2023-02-19T02:56:50;97241.78;;;7.86;100.00
10135;BME280;5107;48.850;8.924;2023-02-19T02:59:22;97233.09;;;7.85;100.00
10135;BME280;5107;48.850;8.924;2023-02-19T03:01:56;97241.91;;;7.84;100.00
10135;BME280;5107;48.850;8.924;2023-02-19T03:04:44;97241.09;;;7.84;100.00
10135;BME280;5107;48.850;8.924;2023-02-19T03:07:36;97240.25;;;7.83;100.00
10135;BME280;5107;48.850;8.924;2023-02-19T03:10:07;97235.28;;;7.80;100.00
10135;BME280;5107;48.850;8.924;2023-02-19T03:12:36;97233.94;;;7.76;100.00
10135;BME280;5107;48.850;8.924;2023-02-19T03:15:28;97233.09;;;7.76;100.00
10135;BME280;5107;48.850;8.924;2023-02-19T03:18:17;97235.72;;;7.76;100.00
10135;BME280;5107;48.850;8.924;2023-02-19T03:21:03;97237.50;;;7.75;100.00
10135;BME280;5107;48.850;8.924;2023-02-19T03:23:33;97232.16;;;7.77;100.00
10135;BME280;5107;48.850;8.924;2023-02-19T03:26:20;97230.63;;;7.74;100.00
10135;BME280;5107;48.850;8.924;2023-02-19T03:28:52;97234.91;;;7.75;100.00
10135;BME280;5107;48.850;8.924;2023-02-19T03:31:41;97219.19;;;7.75;100.00
10135;BME280;5107;48.850;8.924;2023-02-19T03:34:13;97226.22;;;7.75;100.00
10135;BME280;5107;48.850;8.924;2023-02-19T03:36:47;97212.97;;;7.76;100.00
10135;BME280;5107;48.850;8.924;2023-02-19T03:39:20;97217.53;;;7.74;100.00
10135;BME280;5107;48.850;8.924;2023-02-19T03:41:57;97216.69;;;7.74;100.00
10135;BME280;5107;48.850;8.924;2023-02-19T03:44:35;97222.75;;;7.74;100.00
10135;BME280;5107;48.850;8.924;2023-02-19T03:47:08;97220.97;;;7.75;100.00
10135;BME280;5107;48.850;8.924;2023-02-19T03:49:44;97225.25;;;7.76;100.00
10135;BME280;5107;48.850;8.924;2023-02-19T03:52:17;97229.53;;;7.77;100.00
10135;BME280;5107;48.850;8.924;2023-02-19T03:54:55;97229.53;;;7.77;100.00
10135;BME280;5107;48.850;8.924;2023-02-19T03:57:30;97236.41;;;7.78;100.00
10135;BME280;5107;48.850;8.924;2023-02-19T04:00:05;97227.56;;;7.79;100.00
10135;BME280;5107;48.850;8.924;2023-02-19T04:02:42;97231.72;;;7.81;100.00
10135;BME280;5107;48.850;8.924;2023-02-19T04:05:17;97233.22;;;7.84;100.00
10135;BME280;5107;48.850;8.924;2023-02-19T04:07:49;97233.94;;;7.86;100.00
10135;BME280;5107;48.850;8.924;2023-02-19T04:10:22;97250.47;;;7.86;100.00
10135;BME280;5107;48.850;8.924;2023-02-19T04:12:56;97249.66;;;7.86;100.00
10135;BME280;5107;48.850;8.924;2023-02-19T04:15:29;97249.91;;;7.83;100.00
10135;BME280;5107;48.850;8.924;2023-02-19T04:18:01;97250.03;;;7.81;100.00
10135;BME280;5107;48.850;8.924;2023-02-19T04:20:36;97249.22;;;7.81;100.00
10135;BME280;5107;48.850;8.924;2023-02-19T04:23:05;97254.59;;;7.79;100.00
10135;BME280;5107;48.850;8.924;2023-02-19T04:25:32;97255.41;;;7.80;100.00
10135;BME280;5107;48.850;8.924;2023-02-19T04:28:01;97258.03;;;7.80;100.00
10135;BME280;5107;48.850;8.924;2023-02-19T04:30:28;97252.13;;;7.78;100.00
10135;BME280;5107;48.850;8.924;2023-02-19T04:32:55;97267.97;;;7.76;100.00
10135;BME280;5107;48.850;8.924;2023-02-19T04:35:22;97267.41;;;7.73;100.00
10135;BME280;5107;48.850;8.924;2023-02-19T04:37:51;97260.66;;;7.70;100.00
10135;BME280;5107;48.850;8.924;2023-02-19T04:40:18;97260.94;;;7.67;100.00
10135;BME280;5107;48.850;8.924;2023-02-19T04:42:45;97275.28;;;7.63;100.00
10135;BME280;5107;48.850;8.924;2023-02-19T04:45:12;97275.28;;;7.63;100.00
10135;BME280;5107;48.850;8.924;2023-02-19T04:47:39;97276.41;;;7.60;100.00
10135;BME280;5107;48.850;8.924;2023-02-19T04:50:06;97279.00;;;7.60;100.00
10135;BME280;5107;48.850;8.924;2023-02-19T04:52:34;97280.81;;;7.60;100.00
10135;BME280;5107;48.850;8.924;2023-02-19T04:55:03;97283.56;;;7.58;100.00
10135;BME280;5107;48.850;8.924;2023-02-19T04:57:30;97300.91;;;7.59;100.00
10135;BME280;5107;48.850;8.924;2023-02-19T04:59:57;97286.03;;;7.60;100.00
10135;BME280;5107;48.850;8.924;2023-02-19T05:02:24;97288.91;;;7.57;100.00
10135;BME280;5107;48.850;8.924;2023-02-19T05:04:51;97290.72;;;7.56;100.00
10135;BME280;5107;48.850;8.924;2023-02-19T05:07:18;97299.53;;;7.55;100.00
10135;BME280;5107;48.850;8.924;2023-02-19T05:09:45;97288.22;;;7.55;100.00
10135;BME280;5107;48.850;8.924;2023-02-19T05:12:13;97300.50;;;7.54;100.00
10135;BME280;5107;48.850;8.924;2023-02-19T05:14:40;97307.50;;;7.54;100.00
10135;BME280;5107;48.850;8.924;2023-02-19T05:17:07;97304.06;;;7.53;100.00
10135;BME280;5107;48.850;8.924;2023-02-19T05:19:34;97298.28;;;7.50;100.00
10135;BME280;5107;48.850;8.924;2023-02-19T05:22:01;97299.38;;;7.47;100.00
10135;BME280;5107;48.850;8.924;2023-02-19T05:24:28;97295.94;;;7.47;100.00
10135;BME280;5107;48.850;8.924;2023-02-19T05:26:56;97287.38;;;7.45;100.00
10135;BME280;5107;48.850;8.924;2023-02-19T05:29:24;97293.44;;;7.45;100.00
10135;BME280;5107;48.850;8.924;2023-02-19T05:31:51;97294.13;;;7.47;100.00
10135;BME280;5107;48.850;8.924;2023-02-19T05:34:18;97296.75;;;7.47;100.00
10135;BME280;5107;48.850;8.924;2023-02-19T05:36:45;97305.31;;;7.49;100.00
10135;BME280;5107;48.850;8.924;2023-02-19T05:39:12;97306.97;;;7.50;99.97
10135;BME280;5107;48.850;8.924;2023-02-19T05:41:39;97311.25;;;7.51;99.64
10135;BME280;5107;48.850;8.924;2023-02-19T05:44:08;97318.28;;;7.51;99.65
10135;BME280;5107;48.850;8.924;2023-02-19T05:46:38;97327.78;;;7.52;99.51
10135;BME280;5107;48.850;8.924;2023-02-19T05:49:05;97319.94;;;7.52;99.48
10135;BME280;5107;48.850;8.924;2023-02-19T05:51:32;97321.59;;;7.53;99.04
10135;BME280;5107;48.850;8.924;2023-02-19T05:53:59;97325.16;;;7.52;98.63
10135;BME280;5107;48.850;8.924;2023-02-19T05:56:31;97325.16;;;7.52;98.65
10135;BME280;5107;48.850;8.924;2023-02-19T05:58:59;97323.50;;;7.51;98.22
10135;BME280;5107;48.850;8.924;2023-02-19T06:01:27;97325.84;;;7.54;97.38
10135;BME280;5107;48.850;8.924;2023-02-19T06:03:57;97321.31;;;7.56;96.63
10135;BME280;5107;48.850;8.924;2023-02-19T06:06:25;97324.63;;;7.58;96.85
10135;BME280;5107;48.850;8.924;2023-02-19T06:08:52;97323.22;;;7.54;96.60
10135;BME280;5107;48.850;8.924;2023-02-19T06:11:20;97314.81;;;7.50;97.32
10135;BME280;5107;48.850;8.924;2023-02-19T06:13:47;97309.59;;;7.50;96.16
10135;BME280;5107;48.850;8.924;2023-02-19T06:16:15;97316.50;;;7.51;95.04
10135;BME280;5107;48.850;8.924;2023-02-19T06:18:43;97331.91;;;7.54;95.24
10135;BME280;5107;48.850;8.924;2023-02-19T06:21:12;97318.81;;;7.54;94.85
10135;BME280;5107;48.850;8.924;2023-02-19T06:23:40;97321.16;;;7.57;94.18
10135;BME280;5107;48.850;8.924;2023-02-19T06:26:10;97328.19;;;7.57;94.26
10135;BME280;5107;48.850;8.924;2023-02-19T06:28:39;97333.56;;;7.55;93.99
10135;BME280;5107;48.850;8.924;2023-02-19T06:31:08;97337.00;;;7.56;93.52
10135;BME280;5107;48.850;8.924;2023-02-19T06:33:36;97345.31;;;7.61;92.93
10135;BME280;5107;48.850;8.924;2023-02-19T06:36:08;97353.16;;;7.61;92.85
10135;BME280;5107;48.850;8.924;2023-02-19T06:38:37;97348.72;;;7.61;93.09
10135;BME280;5107;48.850;8.924;2023-02-19T06:41:06;97352.19;;;7.62;93.04
10135;BME280;5107;48.850;8.924;2023-02-19T06:43:34;97356.59;;;7.61;93.24
10135;BME280;5107;48.850;8.924;2023-02-19T06:46:03;97359.19;;;7.61;93.26
10135;BME280;5107;48.850;8.924;2023-02-19T06:48:32;97362.66;;;7.62;92.83
10135;BME280;5107;48.850;8.924;2023-02-19T06:50:59;97360.72;;;7.64;92.69
10135;BME280;5107;48.850;8.924;2023-02-19T06:53:27;97362.41;;;7.65;93.08
10135;BME280;5107;48.850;8.924;2023-02-19T06:56:00;97367.06;;;7.61;93.40
10135;BME280;5107;48.850;8.924;2023-02-19T06:58:28;97386.22;;;7.62;93.42
10135;BME280;5107;48.850;8.924;2023-02-19T07:00:55;97386.91;;;7.64;93.39
10135;BME280;5107;48.850;8.924;2023-02-19T07:03:22;97396.69;;;7.62;93.59
10135;BME280;5107;48.850;8.924;2023-02-19T07:05:51;97397.69;;;7.61;94.24
10135;BME280;5107;48.850;8.924;2023-02-19T07:08:18;97391.88;;;7.57;93.66
10135;BME280;5107;48.850;8.924;2023-02-19T07:10:45;97387.47;;;7.58;93.47
10135;BME280;5107;48.850;8.924;2023-02-19T07:13:13;97395.59;;;7.65;92.59
10135;BME280;5107;48.850;8.924;2023-02-19T07:15:40;97398.78;;;7.68;92.25
10135;BME280;5107;48.850;8.924;2023-02-19T07:18:07;97397.69;;;7.71;91.39
10135;BME280;5107;48.850;8.924;2023-02-19T07:20:35;97389.81;;;7.71;91.22
10135;BME280;5107;48.850;8.924;2023-02-19T07:23:03;97393.28;;;7.71;91.39
10135;BME280;5107;48.850;8.924;2023-02-19T07:25:30;97393.28;;;7.71;90.83
10135;BME280;5107;48.850;8.924;2023-02-19T07:27:57;97387.78;;;7.74;90.45
10135;BME280;5107;48.850;8.924;2023-02-19T07:30:25;97391.94;;;7.77;89.82
10135;BME280;5107;48.850;8.924;2023-02-19T07:32:52;97396.88;;;7.80;89.48
10135;BME280;5107;48.850;8.924;2023-02-19T07:35:19;97401.97;;;7.81;89.49
10135;BME280;5107;48.850;8.924;2023-02-19T07:37:46;97413.16;;;7.83;89.38
10135;BME280;5107;48.850;8.924;2023-02-19T07:40:13;97416.47;;;7.85;89.42
10135;BME280;5107;48.850;8.924;2023-02-19T07:42:40;97424.19;;;7.87;89.42
10135;BME280;5107;48.850;8.924;2023-02-19T07:45:08;97425.00;;;7.87;88.44
10135;BME280;5107;48.850;8.924;2023-02-19T07:47:36;97425.44;;;7.92;88.05
10135;BME280;5107;48.850;8.924;2023-02-19T07:50:03;97439.94;;;7.96;88.13
10135;BME280;5107;48.850;8.924;2023-02-19T07:52:32;97434.69;;;7.96;88.00
10135;BME280;5107;48.850;8.924;2023-02-19T07:55:00;97448.47;;;7.98;87.78
10135;BME280;5107;48.850;8.924;2023-02-19T07:57:28;97448.22;;;8.02;87.56
10135;BME280;5107;48.850;8.924;2023-02-19T07:59:56;97455.13;;;8.03;88.31
10135;BME280;5107;48.850;8.924;2023-02-19T08:02:23;97460.63;;;7.99;87.89
10135;BME280;5107;48.850;8.924;2023-02-19T08:05:09;97459.94;;;7.97;88.65
10135;BME280;5107;48.850;8.924;2023-02-19T08:07:36;97455.66;;;7.96;88.61
10135;BME280;5107;48.850;8.924;2023-02-19T08:10:04;97459.94;;;7.97;88.72
10135;BME280;5107;48.850;8.924;2023-02-19T08:12:55;97470.84;;;8.03;88.99
10135;BME280;5107;48.850;8.924;2023-02-19T08:15:40;97469.19;;;8.02;89.20
10135;BME280;5107;48.850;8.924;2023-02-19T08:18:09;97461.19;;;8.03;89.20
10135;BME280;5107;48.850;8.924;2023-02-19T08:20:37;97454.84;;;8.06;87.55
10135;BME280;5107;48.850;8.924;2023-02-19T08:23:05;97462.69;;;8.06;87.72
10135;BME280;5107;48.850;8.924;2023-02-19T08:25:32;97476.38;;;8.09;88.18
10135;BME280;5107;48.850;8.924;2023-02-19T08:28:00;97484.09;;;8.11;88.68
10135;BME280;5107;48.850;8.924;2023-02-19T08:30:28;97490.44;;;8.08;87.98
10135;BME280;5107;48.850;8.924;2023-02-19T08:32:56;97495.94;;;8.05;87.23
10135;BME280;5107;48.850;8.924;2023-02-19T08:35:23;97503.94;;;8.04;87.40
10135;BME280;5107;48.850;8.924;2023-02-19T08:37:54;97502.13;;;8.04;88.13
10135;BME280;5107;48.850;8.924;2023-02-19T08:40:22;97510.84;;;8.05;88.17
10135;BME280;5107;48.850;8.924;2023-02-19T08:42:50;97502.56;;;7.99;88.49
10135;BME280;5107;48.850;8.924;2023-02-19T08:45:17;97501.16;;;7.95;88.65
10135;BME280;5107;48.850;8.924;2023-02-19T08:47:45;97507.50;;;7.93;89.27
10135;BME280;5107;48.850;8.924;2023-02-19T08:50:12;97496.31;;;7.91;88.75
10135;BME280;5107;48.850;8.924;2023-02-19T08:52:39;97508.47;;;7.92;88.60
10135;BME280;5107;48.850;8.924;2023-02-19T08:55:07;97501.69;;;7.89;88.56
10135;BME280;5107;48.850;8.924;2023-02-19T08:57:35;97496.19;;;7.92;88.39
10135;BME280;5107;48.850;8.924;2023-02-19T09:00:04;97491.66;;;7.94;88.47
10135;BME280;5107;48.850;8.924;2023-02-19T09:02:32;97498.28;;;7.98;87.41
10135;BME280;5107;48.850;8.924;2023-02-19T09:04:59;97494.16;;;8.06;86.37
10135;BME280;5107;48.850;8.924;2023-02-19T09:07:26;97491.28;;;8.18;85.81
10135;BME280;5107;48.850;8.924;2023-02-19T09:09:53;97486.72;;;8.20;84.81
10135;BME280;5107;48.850;8.924;2023-02-19T09:12:25;97498.59;;;8.24;84.16
10135;BME280;5107;48.850;8.924;2023-02-19T09:14:52;97507.72;;;8.30;82.75
10135;BME280;5107;48.850;8.924;2023-02-19T09:17:20;97515.09;;;8.36;83.27
10135;BME280;5107;48.850;8.924;2023-02-19T09:19:47;97519.09;;;8.40;82.75
10135;BME280;5107;48.850;8.924;2023-02-19T09:22:14;97516.19;;;8.43;82.62
10135;BME280;5107;48.850;8.924;2023-02-19T09:24:41;97523.63;;;8.48;81.74
10135;BME280;5107;48.850;8.924;2023-02-19T09:27:14;97518.00;;;8.52;81.90
10135;BME280;5107;48.850;8.924;2023-02-19T09:29:43;97526.97;;;8.59;80.95
10135;BME280;5107;48.850;8.924;2023-02-19T09:32:11;97523.09;;;8.63;80.72
10135;BME280;5107;48.850;8.924;2023-02-19T09:34:38;97519.53;;;8.74;81.44
10135;BME280;5107;48.850;8.924;2023-02-19T09:37:05;97530.97;;;8.73;79.34
10135;BME280;5107;48.850;8.924;2023-02-19T09:39:33;97534.16;;;8.77;79.64
10135;BME280;5107;48.850;8.924;2023-02-19T09:42:08;97537.19;;;8.82;79.11
10135;BME280;5107;48.850;8.924;2023-02-19T09:44:40;97541.91;;;8.78;78.25
10135;BME280;5107;48.850;8.924;2023-02-19T09:47:16;97557.09;;;8.74;78.80
10135;BME280;5107;48.850;8.924;2023-02-19T09:49:45;97555.16;;;8.77;79.00
10135;BME280;5107;48.850;8.924;2023-02-19T09:52:23;97565.66;;;8.77;79.29
10135;BME280;5107;48.850;8.924;2023-02-19T09:54:52;97560.53;;;8.75;78.94
10135;BME280;5107;48.850;8.924;2023-02-19T09:57:23;97549.22;;;8.74;80.07
10135;BME280;5107;48.850;8.924;2023-02-19T09:59:53;97548.13;;;8.77;79.85
10135;BME280;5107;48.850;8.924;2023-02-19T10:02:26;97551.28;;;8.81;79.46
10135;BME280;5107;48.850;8.924;2023-02-19T10:04:56;97534.00;;;8.88;79.08
10135;BME280;5107;48.850;8.924;2023-02-19T10:07:31;97544.94;;;8.93;77.72
10135;BME280;5107;48.850;8.924;2023-02-19T10:10:17;97542.44;;;9.01;76.67
10135;BME280;5107;48.850;8.924;2023-02-19T10:12:49;97545.59;;;9.24;76.07
10135;BME280;5107;48.850;8.924;2023-02-19T10:15:25;97548.19;;;9.52;76.43
10135;BME280;5107;48.850;8.924;2023-02-19T10:17:56;97556.66;;;9.37;75.47
10135;BME280;5107;48.850;8.924;2023-02-19T10:20:25;97568.00;;;9.28;75.49
10135;BME280;5107;48.850;8.924;2023-02-19T10:22:59;97561.22;;;9.16;76.49
10135;BME280;5107;48.850;8.924;2023-02-19T10:25:29;97564.94;;;9.13;76.13
10135;BME280;5107;48.850;8.924;2023-02-19T10:27:57;97569.78;;;9.08;76.02
10135;BME280;5107;48.850;8.924;2023-02-19T10:30:29;97573.66;;;9.13;76.05
10135;BME280;5107;48.850;8.924;2023-02-19T10:33:07;97574.47;;;9.24;75.74
10135;BME280;5107;48.850;8.924;2023-02-19T10:35:36;97584.72;;;9.17;73.97
10135;BME280;5107;48.850;8.924;2023-02-19T10:38:05;97591.50;;;9.20;74.73
10135;BME280;5107;48.850;8.924;2023-02-19T10:40:33;97587.75;;;9.12;75.30
10135;BME280;5107;48.850;8.924;2023-02-19T10:43:02;97591.19;;;9.13;76.29
10135;BME280;5107;48.850;8.924;2023-02-19T10:45:44;97579.59;;;9.16;75.51
10135;BME280;5107;48.850;8.924;2023-02-19T10:48:23;97599.50;;;9.08;75.93
10135;BME280;5107;48.850;8.924;2023-02-19T10:50:51;97597.16;;;9.15;76.21
10135;BME280;5107;48.850;8.924;2023-02-19T10:53:23;97606.53;;;9.08;75.88
10135;BME280;5107;48.850;8.924;2023-02-19T10:56:07;97612.50;;;9.10;76.21
10135;BME280;5107;48.850;8.924;2023-02-19T10:58:35;97618.72;;;9.09;76.28
10135;BME280;5107;48.850;8.924;2023-02-19T11:01:15;97622.56;;;9.05;75.72
10135;BME280;5107;48.850;8.924;2023-02-19T11:03:47;97627.81;;;9.05;76.61
10135;BME280;5107;48.850;8.924;2023-02-19T11:06:15;97628.50;;;9.07;77.17
10135;BME280;5107;48.850;8.924;2023-02-19T11:08:58;97618.44;;;9.02;77.16
10135;BME280;5107;48.850;8.924;2023-02-19T11:11:34;97619.25;;;8.93;77.00
10135;BME280;5107;48.850;8.924;2023-02-19T11:14:10;97621.88;;;8.84;77.29
10135;BME280;5107;48.850;8.924;2023-02-19T11:16:42;97618.97;;;8.77;78.36
10135;BME280;5107;48.850;8.924;2023-02-19T11:19:27;97620.31;;;8.71;79.21
10135;BME280;5107;48.850;8.924;2023-02-19T11:21:55;97612.72;;;8.68;79.50
10135;BME280;5107;48.850;8.924;2023-02-19T11:24:29;97617.28;;;8.66;79.96
10135;BME280;5107;48.850;8.924;2023-02-19T11:27:00;97625.16;;;8.66;81.06
10135;BME280;5107;48.850;8.924;2023-02-19T11:29:29;97605.69;;;8.69;79.83
10135;BME280;5107;48.850;8.924;2023-02-19T11:32:25;97611.63;;;8.81;80.05
10135;BME280;5107;48.850;8.924;2023-02-19T11:35:18;97597.56;;;8.91;78.76
10135;BME280;5107;48.850;8.924;2023-02-19T11:37:57;97590.22;;;9.04;77.85
10135;BME280;5107;48.850;8.924;2023-02-19T11:40:38;97583.88;;;9.17;77.48
10135;BME280;5107;48.850;8.924;2023-02-19T11:43:46;97594.53;;;9.25;75.41
10135;BME280;5107;48.850;8.924;2023-02-19T11:46:21;97597.97;;;9.35;75.06
10135;BME280;5107;48.850;8.924;2023-02-19T11:48:53;97599.34;;;9.39;75.50
10135;BME280;5107;48.850;8.924;2023-02-19T11:52:05;97604.44;;;9.40;75.66
10135;BME280;5107;48.850;8.924;2023-02-19T11:54:54;97612.59;;;9.37;75.34
10135;BME280;5107;48.850;8.924;2023-02-19T11:57:38;97620.66;;;9.45;75.11
10135;BME280;5107;48.850;8.924;2023-02-19T12:00:21;97631.69;;;9.49;74.96
10135;BME280;5107;48.850;8.924;2023-02-19T12:03:25;97639.56;;;9.39;74.68
10135;BME280;5107;48.850;8.924;2023-02-19T12:06:09;97631.69;;;9.39;75.27
10135;BME280;5107;48.850;8.924;2023-02-19T12:09:16;97626.72;;;9.36;74.28
10135;BME280;5107;48.850;8.924;2023-02-19T12:15:07;97626.88;;;9.35;75.14
10135;BME280;5107;48.850;8.924;2023-02-19T12:17:57;97621.59;;;9.25;74.28
10135;BME280;5107;48.850;8.924;2023-02-19T12:20:38;97610.72;;;9.20;74.64
10135;BME280;5107;48.850;8.924;2023-02-19T12:23:31;97609.72;;;9.21;75.00
10135;BME280;5107;48.850;8.924;2023-02-19T12:26:05;97601.69;;;9.32;74.91
10135;BME280;5107;48.850;8.924;2023-02-19T12:29:10;97599.63;;;9.45;74.90
10135;BME280;5107;48.850;8.924;2023-02-19T12:32:14;97591.81;;;9.73;73.80
10135;BME280;5107;48.850;8.924;2023-02-19T12:38:09;97578.75;;;9.90;70.76
10135;BME280;5107;48.850;8.924;2023-02-19T12:40:49;97586.34;;;9.94;69.90
10135;BME280;5107;48.850;8.924;2023-02-19T12:43:23;97598.09;;;9.99;70.37
10135;BME280;5107;48.850;8.924;2023-02-19T12:45:54;97596.97;;;10.02;70.09
10135;BME280;5107;48.850;8.924;2023-02-19T12:48:29;97592.00;;;9.99;69.34
10135;BME280;5107;48.850;8.924;2023-02-19T12:51:04;97585.50;;;10.03;69.38
10135;BME280;5107;48.850;8.924;2023-02-19T12:53:39;97592.34;;;9.86;68.63
10135;BME280;5107;48.850;8.924;2023-02-19T12:56:13;97596.75;;;9.95;68.24
10135;BME280;5107;48.850;8.924;2023-02-19T12:58:49;97596.56;;;9.97;68.71
10135;BME280;5107;48.850;8.924;2023-02-19T13:01:24;97577.41;;;9.86;68.79
10135;BME280;5107;48.850;8.924;2023-02-19T13:04:10;97594.53;;;9.81;69.35
10135;BME280;5107;48.850;8.924;2023-02-19T13:06:43;97598.00;;;9.81;70.10
10135;BME280;5107;48.850;8.924;2023-02-19T13:09:18;97597.06;;;9.73;70.82
10135;BME280;5107;48.850;8.924;2023-02-19T13:11:49;97595.97;;;9.66;69.40
10135;BME280;5107;48.850;8.924;2023-02-19T13:14:27;97608.28;;;9.56;68.80
10135;BME280;5107;48.850;8.924;2023-02-19T13:17:00;97592.97;;;9.51;68.39
10135;BME280;5107;48.850;8.924;2023-02-19T13:19:30;97590.09;;;9.44;69.99
10135;BME280;5107;48.850;8.924;2023-02-19T13:22:06;97587.28;;;9.46;70.04
10135;BME280;5107;48.850;8.924;2023-02-19T13:24:56;97597.13;;;9.44;69.16
10135;BME280;5107;48.850;8.924;2023-02-19T13:27:50;97591.06;;;9.43;70.41
10135;BME280;5107;48.850;8.924;2023-02-19T13:30:36;97594.50;;;9.44;69.77
10135;BME280;5107;48.850;8.924;2023-02-19T13:33:25;97604.31;;;9.42;69.16
10135;BME280;5107;48.850;8.924;2023-02-19T13:36:13;97601.25;;;9.46;69.37
10135;BME280;5107;48.850;8.924;2023-02-19T13:38:43;97595.34;;;9.44;69.18
10135;BME280;5107;48.850;8.924;2023-02-19T13:41:25;97594.66;;;9.42;69.37
10135;BME280;5107;48.850;8.924;2023-02-19T13:44:00;97592.97;;;9.41;69.96
10135;BME280;5107;48.850;8.924;2023-02-19T13:46:38;97585.66;;;9.35;70.15
10135;BME280;5107;48.850;8.924;2023-02-19T13:49:40;97575.72;;;9.29;69.79
10135;BME280;5107;48.850;8.924;2023-02-19T13:52:40;97570.31;;;9.31;70.68
10135;BME280;5107;48.850;8.924;2023-02-19T13:55:48;97572.09;;;9.40;71.03
10135;BME280;5107;48.850;8.924;2023-02-19T14:02:16;97578.16;;;9.60;70.51